Time;durP1;ratioP1;P1;durP2;ratioP2;P2;SDS_P1;SDS_P2;PMS_P1;PMS_P2;Temp;Humidity;BMP_temperature;BMP_pressure;BME280_temperature;BME280_humidity;BME280_pressure;Samples;Min_cycle;Max_cycle;Signal;HPM_P1;HPM_P2
2022/10/16 00:01:43;;;;;;;3.13;1.43;;;20.00;91.20;;;-142.21;100.00;112049.66;5112835;28;20200;-70
2022/10/16 00:04:10;;;;;;;1.83;1.37;;;20.00;91.20;;;-142.21;100.00;112049.66;5113834;28;20207;-70
2022/10/16 00:06:38;;;;;;;3.00;1.37;;;20.00;91.20;;;-142.21;100.00;112049.66;5112931;28;20208;-70
2022/10/16 00:09:05;;;;;;;2.13;1.43;;;20.00;91.30;;;-142.21;100.00;112049.66;5113486;28;20307;-70
2022/10/16 00:11:37;;;;;;;1.37;1.27;;;20.00;91.30;;;-142.21;100.00;112049.66;5112754;28;20214;-69
2022/10/16 00:14:08;;;;;;;2.73;1.30;;;20.00;91.40;;;-142.21;100.00;112049.66;5113673;28;20196;-69
2022/10/16 00:16:36;;;;;;;1.37;1.27;;;20.00;91.40;;;-142.21;100.00;112049.66;5112798;28;20628;-69
2022/10/16 00:19:03;;;;;;;2.50;1.50;;;20.00;91.40;;;-142.21;100.00;112049.66;5113232;28;20232;-68
2022/10/16 00:21:33;;;;;;;5.17;1.50;;;20.00;91.40;;;-142.21;100.00;112049.66;5112841;28;20247;-69
2022/10/16 00:24:04;;;;;;;4.10;1.80;;;20.00;91.40;;;-142.21;100.00;112049.66;5113427;28;20228;-68
2022/10/16 00:26:34;;;;;;;5.00;1.50;;;20.00;91.50;;;-142.21;100.00;112049.66;5113097;28;20841;-68
2022/10/16 00:29:01;;;;;;;6.43;1.70;;;19.90;91.50;;;-142.21;100.00;112049.66;5113102;28;20251;-69
2022/10/16 00:31:31;;;;;;;3.17;1.50;;;20.00;91.50;;;-142.21;100.00;112049.66;5113448;28;20290;-69
2022/10/16 00:33:58;;;;;;;3.27;1.50;;;19.90;91.60;;;-142.21;100.00;112049.66;5113045;28;20671;-70
2022/10/16 00:36:27;;;;;;;2.90;1.60;;;19.90;91.60;;;-142.21;100.00;112049.66;5112993;28;20252;-70
2022/10/16 00:38:57;;;;;;;2.20;1.53;;;19.90;91.60;;;-142.21;100.00;112049.66;5112528;28;20580;-70
2022/10/16 00:41:26;;;;;;;1.97;1.40;;;20.00;91.70;;;-142.21;100.00;112049.66;5113101;28;20256;-70
2022/10/16 00:43:56;;;;;;;5.90;1.70;;;20.00;91.60;;;-142.21;100.00;112049.66;5112592;28;20199;-69
2022/10/16 00:46:27;;;;;;;1.70;1.43;;;20.00;91.60;;;-142.21;100.00;112049.66;5113250;28;20198;-69
2022/10/16 00:49:01;;;;;;;3.27;1.30;;;19.90;91.50;;;-142.21;100.00;112049.66;5112094;28;20194;-69
2022/10/16 00:51:34;;;;;;;3.47;1.70;;;19.90;91.60;;;-142.21;100.00;112049.66;5112498;28;20654;-69
2022/10/16 00:54:03;;;;;;;1.60;1.40;;;19.90;91.60;;;-142.21;100.00;112049.66;5112571;28;20725;-69
2022/10/16 00:56:30;;;;;;;5.10;1.50;;;19.90;91.60;;;-142.21;100.00;112049.66;5112602;28;20218;-69
2022/10/16 00:59:00;;;;;;;1.77;1.40;;;19.90;91.60;;;-142.21;100.00;112049.66;5112521;28;20310;-70
2022/10/16 01:01:27;;;;;;;3.23;1.70;;;19.90;91.70;;;-142.21;100.00;112049.66;5112464;28;20528;-69
2022/10/16 01:03:56;;;;;;;3.13;1.40;;;19.90;91.70;;;-142.21;100.00;112049.66;5112202;28;20570;-69
2022/10/16 01:06:30;;;;;;;3.90;1.60;;;19.90;91.80;;;-142.21;100.00;112049.66;5112425;28;20244;-69
2022/10/16 01:09:14;;;;;;;4.23;1.63;;;19.90;91.80;;;-142.21;100.00;112049.66;5112601;28;20456;-69
2022/10/16 01:11:55;;;;;;;2.17;1.50;;;19.90;91.90;;;-142.21;100.00;112049.66;5111324;28;20191;-69
2022/10/16 01:14:33;;;;;;;2.13;1.80;;;19.90;91.90;;;-142.21;100.00;112049.66;5112411;28;20219;-69
2022/10/16 01:17:07;;;;;;;4.70;2.00;;;19.90;91.90;;;-142.21;100.00;112049.66;5112662;28;20293;-70
2022/10/16 01:20:06;;;;;;;1.43;1.33;;;19.90;91.90;;;-142.21;100.00;112049.66;5111887;28;20627;-70
2022/10/16 01:22:49;;;;;;;3.43;1.80;;;19.90;92.00;;;-142.21;100.00;112049.66;5111451;28;20206;-69
2022/10/16 01:25:30;;;;;;;2.83;1.63;;;19.90;92.00;;;-142.21;100.00;112049.66;5112068;28;20191;-69
2022/10/16 01:28:02;;;;;;;2.33;1.90;;;19.90;92.00;;;-142.21;100.00;112049.66;5111767;28;20710;-69
2022/10/16 01:30:34;;;;;;;4.40;1.50;;;19.90;92.00;;;-142.21;100.00;112049.66;5112056;28;20513;-70
2022/10/16 01:33:09;;;;;;;2.23;1.60;;;19.90;91.90;;;-142.21;100.00;112049.66;5112179;28;20190;-69
2022/10/16 01:35:41;;;;;;;2.03;1.50;;;19.90;92.00;;;-142.21;100.00;112049.66;5111211;28;20451;-69
2022/10/16 01:38:18;;;;;;;3.27;1.60;;;19.90;92.00;;;-142.21;100.00;112049.66;5111746;28;20223;-70
2022/10/16 01:40:51;;;;;;;4.90;1.90;;;19.90;92.00;;;-142.21;100.00;112049.66;5111558;28;20184;-69
2022/10/16 01:43:26;;;;;;;2.03;1.63;;;19.80;92.00;;;-142.21;100.00;112049.66;5112251;28;20426;-69
2022/10/16 01:45:55;;;;;;;1.80;1.30;;;19.80;92.00;;;-142.21;100.00;112049.66;5111564;28;20456;-69
2022/10/16 01:48:24;;;;;;;3.23;1.50;;;19.80;92.00;;;-142.21;100.00;112049.66;5112126;28;20208;-69
2022/10/16 01:51:02;;;;;;;3.23;1.77;;;19.80;92.00;;;-142.21;100.00;112049.66;5111008;28;20437;-69
2022/10/16 01:53:31;;;;;;;4.23;1.80;;;19.80;91.90;;;-142.21;100.00;112049.66;5112117;28;20590;-69
2022/10/16 01:56:01;;;;;;;3.00;1.73;;;19.80;91.90;;;-142.21;100.00;112049.66;5111259;28;20246;-69
2022/10/16 01:58:35;;;;;;;3.23;1.40;;;19.80;91.80;;;-142.21;100.00;112049.66;5111749;28;20286;-69
2022/10/16 02:01:05;;;;;;;2.00;1.40;;;19.90;91.80;;;-142.21;100.00;112049.66;5111645;28;20202;-70
2022/10/16 02:03:35;;;;;;;2.17;1.50;;;19.80;91.80;;;-142.21;100.00;112049.66;5111616;28;20215;-69
2022/10/16 02:06:02;;;;;;;1.60;1.50;;;19.90;91.80;;;-142.21;100.00;112049.66;5111417;28;20801;-69
2022/10/16 02:08:32;;;;;;;4.93;1.60;;;19.90;91.80;;;-142.21;100.00;112049.66;5111902;28;20446;-69
2022/10/16 02:11:01;;;;;;;2.90;1.50;;;19.80;91.80;;;-142.21;100.00;112049.66;5111888;28;20326;-68
2022/10/16 02:13:38;;;;;;;3.90;1.67;;;19.80;91.70;;;-142.21;100.00;112049.66;5111963;28;20207;-70
2022/10/16 02:16:07;;;;;;;4.77;1.53;;;19.80;91.70;;;-142.21;100.00;112049.66;5111818;28;20449;-70
2022/10/16 02:18:34;;;;;;;2.23;1.30;;;19.80;91.70;;;-142.21;100.00;112049.66;5111170;28;20235;-69
2022/10/16 02:21:11;;;;;;;4.40;1.47;;;19.80;91.70;;;-142.21;100.00;112049.66;5111610;28;20566;-69
2022/10/16 02:23:52;;;;;;;2.60;1.40;;;19.80;91.70;;;-142.21;100.00;112049.66;5114057;28;20187;-69
2022/10/16 02:26:29;;;;;;;5.97;2.50;;;19.80;91.70;;;-142.21;100.00;112049.66;5115711;28;20539;-68
2022/10/16 02:29:06;;;;;;;2.07;1.43;;;19.70;91.70;;;-142.21;100.00;112049.66;5115218;28;20475;-69
2022/10/16 02:31:39;;;;;;;2.27;1.87;;;19.70;91.80;;;-142.21;100.00;112049.66;5115529;28;20282;-69
2022/10/16 02:34:11;;;;;;;5.63;1.80;;;19.70;91.60;;;-142.21;100.00;112049.66;5115307;28;20192;-68
2022/10/16 02:36:41;;;;;;;2.20;1.40;;;19.70;91.70;;;-142.21;100.00;112049.66;5114764;28;20449;-70
2022/10/16 02:39:10;;;;;;;3.27;1.83;;;19.70;91.80;;;-142.21;100.00;112049.66;5115616;28;20216;-70
2022/10/16 02:41:40;;;;;;;3.07;1.63;;;19.70;91.80;;;-142.21;100.00;112049.66;5114465;28;20203;-68
2022/10/16 02:44:09;;;;;;;2.20;1.47;;;19.60;91.70;;;-142.21;100.00;112049.66;5115281;28;20268;-68
2022/10/16 02:46:36;;;;;;;1.93;1.67;;;19.60;91.80;;;-142.21;100.00;112049.66;5113737;28;20656;-69
2022/10/16 02:49:04;;;;;;;2.33;1.60;;;19.60;91.90;;;-142.21;100.00;112049.66;5115079;28;20575;-69
2022/10/16 02:51:31;;;;;;;3.03;1.60;;;19.50;92.00;;;-142.21;100.00;112049.66;5114681;28;20208;-69
2022/10/16 02:53:58;;;;;;;2.70;1.43;;;19.50;92.00;;;-142.21;100.00;112049.66;5114473;28;20207;-70
2022/10/16 02:56:25;;;;;;;1.83;1.70;;;19.60;91.90;;;-142.21;100.00;112049.66;5114734;28;20208;-69
2022/10/16 02:58:52;;;;;;;2.73;1.50;;;19.50;91.80;;;-142.21;100.00;112049.66;5114351;28;20712;-69
2022/10/16 03:01:21;;;;;;;1.70;1.60;;;19.60;91.80;;;-142.21;100.00;112049.66;5114815;28;20206;-70
2022/10/16 03:03:48;;;;;;;3.53;1.67;;;19.60;91.80;;;-142.21;100.00;112049.66;5114393;28;20622;-69
2022/10/16 03:06:15;;;;;;;2.27;1.73;;;19.60;91.70;;;-142.21;100.00;112049.66;5114730;28;20660;-69
2022/10/16 03:08:42;;;;;;;4.13;1.53;;;19.50;91.70;;;-142.21;100.00;112049.66;5114453;28;20299;-69
2022/10/16 03:11:09;;;;;;;3.30;1.60;;;19.50;91.70;;;-142.21;100.00;112049.66;5115100;28;20449;-69
2022/10/16 03:13:37;;;;;;;3.10;1.80;;;19.50;91.70;;;-142.21;100.00;112049.66;5114778;28;20444;-69
2022/10/16 03:16:04;;;;;;;6.23;1.80;;;19.50;91.80;;;-142.21;100.00;112049.66;5114571;28;20204;-69
2022/10/16 03:18:33;;;;;;;2.30;1.70;;;19.50;91.70;;;-142.21;100.00;112049.66;5114240;28;20485;-69
2022/10/16 03:21:00;;;;;;;3.73;1.90;;;19.50;91.70;;;-142.21;100.00;112049.66;5114194;28;20269;-69
2022/10/16 03:23:27;;;;;;;3.23;1.57;;;19.50;91.80;;;-142.21;100.00;112049.66;5114689;28;20286;-69
2022/10/16 03:25:55;;;;;;;2.30;1.77;;;19.50;91.80;;;-142.21;100.00;112049.66;5114049;28;20541;-69
2022/10/16 03:28:22;;;;;;;4.43;1.90;;;19.50;91.80;;;-142.21;100.00;112049.66;5114689;28;20200;-69
2022/10/16 03:30:49;;;;;;;1.70;1.60;;;19.50;91.80;;;-142.21;100.00;112049.66;5113615;28;20448;-69
2022/10/16 03:33:16;;;;;;;2.23;2.00;;;19.50;91.70;;;-142.21;100.00;112049.66;5114714;28;20567;-69
2022/10/16 03:35:53;;;;;;;4.87;1.70;;;19.50;91.70;;;-142.21;100.00;112049.66;5112971;28;20819;-69
2022/10/16 03:38:21;;;;;;;4.00;1.50;;;19.50;91.70;;;-142.21;100.00;112049.66;5114553;28;20478;-69
2022/10/16 03:40:48;;;;;;;1.67;1.57;;;19.50;91.70;;;-142.21;100.00;112049.66;5113498;28;20992;-69
2022/10/16 03:43:16;;;;;;;2.80;1.43;;;19.50;91.70;;;-142.21;100.00;112049.66;5114038;28;20444;-69
2022/10/16 03:45:43;;;;;;;2.00;1.63;;;19.50;91.70;;;-142.21;100.00;112049.66;5113176;28;20442;-69
2022/10/16 03:48:10;;;;;;;5.00;1.60;;;19.50;91.80;;;-142.21;100.00;112049.66;5114163;28;20445;-69
2022/10/16 03:50:37;;;;;;;2.97;1.83;;;19.50;91.80;;;-142.21;100.00;112049.66;5114087;28;20220;-69
2022/10/16 03:53:06;;;;;;;4.70;1.80;;;19.50;91.90;;;-142.21;100.00;112049.66;5113358;28;20441;-70
2022/10/16 03:55:33;;;;;;;2.77;1.60;;;19.40;91.90;;;-142.21;100.00;112049.66;5114262;28;20210;-69
2022/10/16 03:58:00;;;;;;;2.40;1.40;;;19.30;91.90;;;-142.21;100.00;112049.66;5113529;28;21156;-69
2022/10/16 04:00:27;;;;;;;4.90;1.80;;;19.30;92.00;;;-142.21;100.00;112049.66;5113720;28;20911;-70
2022/10/16 04:02:54;;;;;;;1.80;1.30;;;19.20;92.20;;;-142.21;100.00;112049.66;5112874;28;20445;-69
2022/10/16 04:05:22;;;;;;;2.53;1.40;;;19.20;92.20;;;-142.21;100.00;112049.66;5113611;28;20449;-69
2022/10/16 04:07:49;;;;;;;1.50;1.40;;;19.20;92.20;;;-142.21;100.00;112049.66;5113378;28;20800;-69
2022/10/16 04:10:17;;;;;;;2.17;1.70;;;19.20;92.20;;;-142.21;100.00;112049.66;5114034;28;20290;-69
2022/10/16 04:12:45;;;;;;;1.73;1.57;;;19.20;92.30;;;-142.21;100.00;112049.66;5113142;28;20438;-69
2022/10/16 04:15:12;;;;;;;2.33;1.30;;;19.20;92.20;;;-142.21;100.00;112049.66;5113436;28;20207;-69
2022/10/16 04:17:39;;;;;;;4.43;1.50;;;19.30;92.10;;;-142.21;100.00;112049.66;5112997;28;20665;-70
2022/10/16 04:20:08;;;;;;;2.43;1.50;;;19.30;92.00;;;-142.21;100.00;112049.66;5113460;28;20820;-70
2022/10/16 04:22:35;;;;;;;2.73;1.43;;;19.30;92.00;;;-142.21;100.00;112049.66;5113202;28;20473;-69
2022/10/16 04:25:02;;;;;;;3.17;1.70;;;19.30;92.00;;;-142.21;100.00;112049.66;5112620;28;20528;-69
2022/10/16 04:27:31;;;;;;;1.40;1.30;;;19.40;92.00;;;-142.21;100.00;112049.66;5113158;28;20536;-69
2022/10/16 04:29:58;;;;;;;3.87;1.70;;;19.30;92.00;;;-142.21;100.00;112049.66;5113036;28;20227;-70
2022/10/16 04:32:25;;;;;;;3.03;1.77;;;19.40;92.00;;;-142.21;100.00;112049.66;5113092;28;20309;-69
2022/10/16 04:34:55;;;;;;;2.40;1.67;;;19.40;92.30;;;-142.21;100.00;112049.66;5112700;28;20476;-69
2022/10/16 04:37:26;;;;;;;4.27;1.63;;;19.40;92.00;;;-142.21;100.00;112049.66;5112933;28;20265;-69
2022/10/16 04:39:55;;;;;;;3.20;1.90;;;19.40;92.00;;;-142.21;100.00;112049.66;5112515;28;20227;-70
2022/10/16 04:42:23;;;;;;;2.90;1.57;;;19.40;92.00;;;-142.21;100.00;112049.66;5112961;28;20541;-70
2022/10/16 04:44:51;;;;;;;4.80;1.40;;;19.40;92.00;;;-142.21;100.00;112049.66;5112539;28;20287;-70
2022/10/16 04:47:18;;;;;;;2.43;1.30;;;19.30;92.00;;;-142.21;100.00;112049.66;5112836;28;20441;-70
2022/10/16 04:49:46;;;;;;;1.90;1.30;;;19.20;92.10;;;-142.21;100.00;112049.66;5112547;28;20227;-70
2022/10/16 04:52:14;;;;;;;2.20;1.40;;;19.30;92.20;;;-142.21;100.00;112049.66;5112383;28;20446;-70
2022/10/16 04:54:41;;;;;;;2.73;1.73;;;19.30;92.20;;;-142.21;100.00;112049.66;5113033;28;20522;-71
2022/10/16 04:57:09;;;;;;;2.97;1.47;;;19.30;92.10;;;-142.21;100.00;112049.66;5112698;28;20618;-69
2022/10/16 04:59:37;;;;;;;2.00;1.50;;;19.30;92.10;;;-142.21;100.00;112049.66;5112172;28;20223;-69
2022/10/16 05:02:05;;;;;;;3.70;1.20;;;19.30;92.10;;;-142.21;100.00;112049.66;5112130;28;20442;-69
2022/10/16 05:04:32;;;;;;;1.73;1.33;;;19.30;92.10;;;-142.21;100.00;112049.66;5112803;28;20236;-69
2022/10/16 05:06:59;;;;;;;1.50;1.33;;;19.30;92.00;;;-142.21;100.00;112049.66;5112026;28;20457;-68
2022/10/16 05:09:27;;;;;;;1.83;1.40;;;19.30;92.10;;;-142.21;100.00;112049.66;5112806;28;20663;-68
2022/10/16 05:11:54;;;;;;;1.70;1.60;;;19.20;92.10;;;-142.21;100.00;112049.66;5111540;28;20441;-69
2022/10/16 05:14:21;;;;;;;2.07;1.50;;;19.30;92.20;;;-142.21;100.00;112049.66;5112675;28;20213;-69
2022/10/16 05:16:48;;;;;;;3.03;2.00;;;19.20;92.10;;;-142.21;100.00;112049.66;5112091;28;20524;-69
2022/10/16 05:19:17;;;;;;;1.33;1.23;;;19.20;92.20;;;-142.21;100.00;112049.66;5112286;28;20496;-69
2022/10/16 05:21:44;;;;;;;2.90;1.60;;;19.20;92.20;;;-142.21;100.00;112049.66;5111786;28;20448;-69
2022/10/16 05:24:11;;;;;;;2.03;1.50;;;19.20;92.10;;;-142.21;100.00;112049.66;5112160;28;20732;-69
2022/10/16 05:26:38;;;;;;;1.93;1.70;;;19.20;92.10;;;-142.21;100.00;112049.66;5112265;28;20230;-69
2022/10/16 05:29:06;;;;;;;3.43;1.83;;;19.20;92.00;;;-142.21;100.00;112049.66;5111441;28;20469;-69
2022/10/16 05:31:33;;;;;;;5.10;2.10;;;19.20;92.10;;;-142.21;100.00;112049.66;5112379;28;20200;-69
2022/10/16 05:34:03;;;;;;;3.40;2.40;;;19.20;92.00;;;-142.21;100.00;112049.66;5111646;28;20524;-69
2022/10/16 05:36:32;;;;;;;4.07;2.50;;;19.10;92.00;;;-142.21;100.00;112049.66;5111783;28;20284;-69
2022/10/16 05:38:59;;;;;;;5.20;2.60;;;19.10;92.20;;;-142.21;100.00;112049.66;5111606;28;20477;-69
2022/10/16 05:41:26;;;;;;;2.10;1.90;;;19.10;92.10;;;-142.21;100.00;112049.66;5111699;28;20223;-69
2022/10/16 05:43:54;;;;;;;5.00;2.70;;;19.10;92.10;;;-142.21;100.00;112049.66;5111246;28;20294;-69
2022/10/16 05:46:21;;;;;;;5.60;2.17;;;19.20;92.10;;;-142.21;100.00;112049.66;5112196;28;20453;-68
2022/10/16 05:48:48;;;;;;;2.53;2.10;;;19.20;92.10;;;-142.21;100.00;112049.66;5111440;28;20444;-68
2022/10/16 05:51:16;;;;;;;4.00;1.70;;;19.10;92.10;;;-142.21;100.00;112049.66;5111685;28;20622;-70
2022/10/16 05:53:45;;;;;;;3.50;1.80;;;19.10;92.10;;;-142.21;100.00;112049.66;5111762;28;20291;-69
2022/10/16 05:56:13;;;;;;;2.03;1.57;;;19.10;92.10;;;-142.21;100.00;112049.66;5111852;28;20304;-68
2022/10/16 05:58:41;;;;;;;2.47;2.10;;;19.20;92.20;;;-142.21;100.00;112049.66;5111312;28;20204;-69
2022/10/16 06:01:12;;;;;;;3.23;1.90;;;19.10;92.20;;;-142.21;100.00;112049.66;5111338;28;20488;-69
2022/10/16 06:03:40;;;;;;;5.43;2.67;;;19.10;92.10;;;-142.21;100.00;112049.66;5111561;28;20184;-69
2022/10/16 06:06:13;;;;;;;1.90;1.60;;;19.10;92.10;;;-142.21;100.00;112049.66;5111406;28;20650;-69
2022/10/16 06:08:42;;;;;;;2.30;1.73;;;19.10;92.20;;;-142.21;100.00;112049.66;5111582;28;20902;-69
2022/10/16 06:11:13;;;;;;;2.90;1.27;;;19.00;92.20;;;-142.21;100.00;112049.66;5111181;28;20532;-69
2022/10/16 06:13:42;;;;;;;2.90;1.60;;;19.00;92.30;;;-142.21;100.00;112049.66;5111280;28;20847;-69
2022/10/16 06:16:13;;;;;;;3.63;1.60;;;18.90;92.40;;;-142.21;100.00;112049.66;5111296;28;20291;-69
2022/10/16 06:18:40;;;;;;;1.60;1.20;;;18.90;92.30;;;-142.21;100.00;112049.66;5111570;28;20239;-69
2022/10/16 06:21:15;;;;;;;5.57;2.13;;;18.90;92.30;;;-142.21;100.00;112049.66;5110748;28;20965;-69
2022/10/16 06:23:42;;;;;;;1.10;1.00;;;19.00;92.30;;;-142.21;100.00;112049.66;5111598;28;20530;-68
2022/10/16 06:26:14;;;;;;;4.43;2.10;;;19.00;92.30;;;-142.21;100.00;112049.66;5110784;28;20242;-69
2022/10/16 06:28:42;;;;;;;2.60;1.63;;;19.00;92.20;;;-142.21;100.00;112049.66;5111496;28;20516;-69
2022/10/16 06:31:12;;;;;;;2.67;1.90;;;19.00;92.10;;;-142.21;100.00;112049.66;5111291;28;20532;-69
2022/10/16 06:33:40;;;;;;;3.33;1.80;;;19.10;92.10;;;-142.21;100.00;112049.66;5111810;28;20566;-69
2022/10/16 06:36:11;;;;;;;2.17;1.47;;;19.10;92.00;;;-142.21;100.00;112049.66;5111240;28;20264;-69
2022/10/16 06:38:44;;;;;;;1.50;1.40;;;19.10;92.00;;;-142.21;100.00;112049.66;5111074;28;20926;-70
2022/10/16 06:41:15;;;;;;;2.47;1.70;;;19.20;92.00;;;-142.21;100.00;112049.66;5110973;28;20492;-70
2022/10/16 06:43:47;;;;;;;3.60;1.40;;;19.10;92.00;;;-142.21;100.00;112049.66;5111613;28;20449;-70
2022/10/16 06:46:17;;;;;;;2.93;1.80;;;19.10;92.00;;;-142.21;100.00;112049.66;5111583;28;20445;-68
2022/10/16 06:48:45;;;;;;;4.07;1.53;;;19.10;91.90;;;-142.21;100.00;112049.66;5111175;28;20430;-69
2022/10/16 06:51:15;;;;;;;3.53;1.40;;;19.10;92.00;;;-142.21;100.00;112049.66;5111187;28;20724;-69
2022/10/16 06:53:45;;;;;;;3.27;1.53;;;19.00;92.10;;;-142.21;100.00;112049.66;5111326;28;20456;-69
2022/10/16 06:56:18;;;;;;;2.43;1.63;;;18.90;92.20;;;-142.21;100.00;112049.66;5110345;28;20441;-70
2022/10/16 06:58:49;;;;;;;2.77;1.60;;;18.90;92.40;;;-142.21;100.00;112049.66;5111216;28;20520;-69
2022/10/16 07:01:19;;;;;;;2.97;1.40;;;18.90;92.60;;;-142.21;100.00;112049.66;5111085;28;20469;-69
2022/10/16 07:03:48;;;;;;;5.50;1.70;;;18.90;92.80;;;-142.21;100.00;112049.66;5111394;28;20248;-69
2022/10/16 07:06:19;;;;;;;5.10;1.63;;;18.90;92.60;;;-142.21;100.00;112049.66;5110977;28;20889;-68
2022/10/16 07:08:57;;;;;;;3.33;1.63;;;18.90;92.60;;;-142.21;100.00;112049.66;5110661;28;20688;-68
2022/10/16 07:11:28;;;;;;;2.07;1.33;;;19.00;92.70;;;-142.21;100.00;112049.66;5114503;28;20964;-70
2022/10/16 07:13:55;;;;;;;2.87;1.63;;;19.00;92.70;;;-142.21;100.00;112049.66;5112843;28;20441;-70
2022/10/16 07:16:26;;;;;;;2.53;1.40;;;19.10;92.70;;;-142.21;100.00;112049.66;5114474;28;20451;-69
2022/10/16 07:18:58;;;;;;;2.90;1.53;;;19.10;92.50;;;-142.21;100.00;112049.66;5113820;28;20235;-68
2022/10/16 07:21:28;;;;;;;4.00;1.50;;;19.20;92.50;;;-142.21;100.00;112049.66;5114799;28;20609;-69
2022/10/16 07:23:57;;;;;;;1.60;1.50;;;19.30;92.40;;;-142.21;100.00;112049.66;5114085;28;20192;-69
2022/10/16 07:26:28;;;;;;;1.83;1.50;;;19.40;92.50;;;-142.21;100.00;112049.66;5114451;28;20203;-69
2022/10/16 07:28:55;;;;;;;2.43;1.50;;;19.40;92.40;;;-142.21;100.00;112049.66;5113870;28;20453;-69
2022/10/16 07:31:23;;;;;;;2.13;1.60;;;19.50;92.30;;;-142.21;100.00;112049.66;5114552;28;20226;-69
2022/10/16 07:33:51;;;;;;;5.37;1.50;;;19.60;92.30;;;-142.21;100.00;112049.66;5114308;28;20246;-70
2022/10/16 07:36:21;;;;;;;1.67;1.50;;;19.70;92.10;;;-142.21;100.00;112049.66;5114404;28;20227;-69
2022/10/16 07:38:48;;;;;;;1.27;1.20;;;19.80;92.10;;;-142.21;100.00;112049.66;5114328;28;20590;-69
2022/10/16 07:41:18;;;;;;;2.20;1.90;;;19.90;92.00;;;-142.21;100.00;112049.66;5111537;28;20227;-69
2022/10/16 07:43:50;;;;;;;2.80;1.93;;;19.90;92.00;;;-142.21;100.00;112049.66;5096513;28;20435;-69
2022/10/16 07:46:19;;;;;;;2.33;1.60;;;20.00;91.70;;;-142.21;100.00;112049.66;5114321;28;20570;-69
2022/10/16 07:48:47;;;;;;;1.77;1.53;;;20.10;91.60;;;-142.21;100.00;112049.66;5114276;28;20204;-68
2022/10/16 07:51:17;;;;;;;2.90;1.93;;;20.10;91.50;;;-142.21;100.00;112049.66;5113245;28;20200;-70
2022/10/16 07:53:48;;;;;;;2.00;1.80;;;20.20;91.60;;;-142.21;100.00;112049.66;5114156;28;20245;-68
2022/10/16 07:56:17;;;;;;;5.53;2.00;;;20.10;91.60;;;-142.21;100.00;112049.66;5113567;28;20203;-69
2022/10/16 07:58:44;;;;;;;1.87;1.60;;;20.10;91.70;;;-142.21;100.00;112049.66;5113997;28;20226;-70
2022/10/16 08:01:16;;;;;;;1.60;1.47;;;20.10;91.70;;;-142.21;100.00;112049.66;5113131;28;20219;-69
2022/10/16 08:03:43;;;;;;;2.73;1.70;;;20.10;91.80;;;-142.21;100.00;112049.66;5113938;28;20597;-70
2022/10/16 08:06:11;;;;;;;4.77;1.87;;;20.10;91.90;;;-142.21;100.00;112049.66;5113042;28;20260;-69
2022/10/16 08:08:42;;;;;;;1.63;1.53;;;20.10;91.90;;;-142.21;100.00;112049.66;5113487;28;20203;-69
2022/10/16 08:11:09;;;;;;;1.97;1.70;;;20.20;91.90;;;-142.21;100.00;112049.66;5113202;28;20199;-69
2022/10/16 08:13:37;;;;;;;2.40;1.83;;;20.30;91.60;;;-142.21;100.00;112049.66;5113917;28;20235;-69
2022/10/16 08:16:07;;;;;;;3.60;2.00;;;20.30;91.60;;;-142.21;100.00;112049.66;5113047;28;20211;-69
2022/10/16 08:18:37;;;;;;;3.13;1.80;;;20.40;91.30;;;-142.21;100.00;112049.66;5113464;28;20240;-69
2022/10/16 08:21:06;;;;;;;2.87;1.87;;;20.50;91.30;;;-142.21;100.00;112049.66;5112522;28;20266;-70
2022/10/16 08:23:34;;;;;;;2.67;1.70;;;20.50;91.10;;;-142.21;100.00;112049.66;5113347;28;20640;-69
2022/10/16 08:26:06;;;;;;;2.83;1.40;;;20.70;91.30;;;-142.21;100.00;112049.66;5112751;28;20207;-69
2022/10/16 08:28:34;;;;;;;1.40;1.30;;;20.80;90.80;;;-142.21;100.00;112049.66;5113103;28;20277;-70
2022/10/16 08:31:10;;;;;;;1.93;1.57;;;20.80;90.60;;;-142.21;100.00;112049.66;5112861;28;20292;-68
2022/10/16 08:33:41;;;;;;;4.63;1.60;;;20.80;90.60;;;-142.21;100.00;112049.66;5113785;28;20608;-68
2022/10/16 08:36:10;;;;;;;5.47;2.03;;;20.80;90.70;;;-142.21;100.00;112049.66;5112492;28;20598;-68
2022/10/16 08:38:38;;;;;;;2.60;1.50;;;20.90;90.60;;;-142.21;100.00;112049.66;5113231;28;20203;-70
2022/10/16 08:41:35;;;;;;;1.50;1.40;;;20.90;90.70;;;-142.21;100.00;112049.66;5112507;28;20224;-69
2022/10/16 08:44:37;;;;;;;2.80;1.40;;;21.00;90.70;;;-142.21;100.00;112049.66;5112425;28;20192;-70
2022/10/16 08:47:17;;;;;;;2.87;1.53;;;21.10;90.60;;;-142.21;100.00;112049.66;5112131;28;20192;-69
2022/10/16 08:49:57;;;;;;;1.60;1.50;;;21.10;90.50;;;-142.21;100.00;112049.66;5112741;28;20188;-69
2022/10/16 08:52:31;;;;;;;4.63;2.33;;;21.20;90.30;;;-142.21;100.00;112049.66;5112833;28;20179;-69
2022/10/16 08:55:01;;;;;;;4.03;1.80;;;21.10;89.90;;;-142.21;100.00;112049.66;5112477;28;20274;-69
2022/10/16 08:57:31;;;;;;;3.60;1.70;;;21.10;90.10;;;-142.21;100.00;112049.66;5112586;28;20203;-69
2022/10/16 09:00:12;;;;;;;3.17;1.63;;;21.20;90.10;;;-142.21;100.00;112049.66;5112670;28;20566;-69
2022/10/16 09:02:50;;;;;;;3.00;1.77;;;21.30;89.70;;;-142.21;100.00;112049.66;5092565;28;20291;-69
2022/10/16 09:05:47;;;;;;;1.63;1.53;;;21.40;89.30;;;-142.21;100.00;112049.66;5039473;28;20208;-69
2022/10/16 09:08:29;;;;;;;2.03;1.83;;;21.50;89.10;;;-142.21;100.00;112049.66;5091292;28;20189;-69
2022/10/16 09:11:05;;;;;;;5.47;1.93;;;21.50;89.10;;;-142.21;100.00;112049.66;5091975;28;20180;-70
2022/10/16 09:13:44;;;;;;;5.33;2.30;;;21.50;89.10;;;-142.21;100.00;112049.66;5091994;28;20222;-70
2022/10/16 09:16:24;;;;;;;2.10;1.90;;;21.60;89.20;;;-142.21;100.00;112049.66;5091746;28;20189;-69
2022/10/16 09:19:02;;;;;;;2.63;1.77;;;21.60;87.20;;;-142.21;100.00;112049.66;5091375;28;20240;-70
2022/10/16 09:21:34;;;;;;;2.20;1.90;;;21.60;87.70;;;-142.21;100.00;112049.66;5091905;28;20220;-69
2022/10/16 09:24:12;;;;;;;2.43;1.73;;;21.60;88.20;;;-142.21;100.00;112049.66;5091338;28;20230;-69
2022/10/16 09:26:40;;;;;;;2.37;1.90;;;21.70;88.00;;;-142.21;100.00;112049.66;5092030;28;20579;-69
2022/10/16 09:29:07;;;;;;;1.90;1.80;;;21.60;87.00;;;-142.21;100.00;112049.66;5091204;28;20278;-70
2022/10/16 09:31:38;;;;;;;2.83;1.90;;;21.60;87.60;;;-142.21;100.00;112049.66;5091793;28;20204;-69
2022/10/16 09:34:11;;;;;;;2.87;1.90;;;21.70;87.90;;;-142.21;100.00;112049.66;5090259;28;20204;-69
2022/10/16 09:36:47;;;;;;;2.47;1.60;;;21.70;88.00;;;-142.21;100.00;112049.66;5091668;28;20204;-70
2022/10/16 09:39:17;;;;;;;3.47;1.70;;;21.80;87.50;;;-142.21;100.00;112049.66;5091158;28;20220;-69
2022/10/16 09:41:46;;;;;;;2.87;1.70;;;21.80;86.40;;;-142.21;100.00;112049.66;5091766;28;20314;-71
2022/10/16 09:44:25;;;;;;;3.87;1.90;;;21.90;86.80;;;-142.21;100.00;112049.66;5090847;28;20285;-70
2022/10/16 09:47:03;;;;;;;4.17;1.90;;;21.90;85.20;;;-142.21;100.00;112049.66;5091495;28;20184;-69
2022/10/16 09:49:30;;;;;;;2.30;2.10;;;22.00;85.40;;;-142.21;100.00;112049.66;5091708;28;20276;-70
2022/10/16 09:52:12;;;;;;;1.97;1.63;;;22.00;85.20;;;-142.21;100.00;112049.66;5091335;28;20287;-70
2022/10/16 09:54:52;;;;;;;4.93;2.00;;;22.10;85.50;;;-142.21;100.00;112049.66;5091408;28;20193;-69
2022/10/16 09:57:21;;;;;;;2.57;1.70;;;22.30;86.30;;;-142.21;100.00;112049.66;5090780;28;20708;-70
2022/10/16 09:59:50;;;;;;;3.03;1.60;;;22.50;86.20;;;-142.21;100.00;112049.66;5091629;28;20204;-70
2022/10/16 10:02:20;;;;;;;5.60;2.03;;;22.60;84.20;;;-142.21;100.00;112049.66;5109319;28;20253;-70
2022/10/16 10:04:54;;;;;;;2.33;1.80;;;22.70;84.70;;;-142.21;100.00;112049.66;5111652;28;20237;-70
2022/10/16 10:07:27;;;;;;;2.83;1.80;;;22.80;83.20;;;-142.21;100.00;112049.66;5111660;28;20229;-69